sensor_id;sensor_type;location;lat;lon;timestamp;temperature;humidity
46336;DHT22;31365;48.858;8.530;2023-04-29T00:06:19;14.30;99.90
46336;DHT22;31365;48.858;8.530;2023-04-29T00:08:48;14.30;99.90
46336;DHT22;31365;48.858;8.530;2023-04-29T00:11:17;14.30;99.90
46336;DHT22;31365;48.858;8.530;2023-04-29T00:13:47;14.30;99.90
46336;DHT22;31365;48.858;8.530;2023-04-29T00:16:15;14.30;99.90
46336;DHT22;31365;48.858;8.530;2023-04-29T00:18:44;14.30;99.90
46336;DHT22;31365;48.858;8.530;2023-04-29T00:21:12;14.30;99.90
46336;DHT22;31365;48.858;8.530;2023-04-29T00:23:40;14.30;99.90
46336;DHT22;31365;48.858;8.530;2023-04-29T00:26:09;14.30;99.90
46336;DHT22;31365;48.858;8.530;2023-04-29T00:28:39;14.30;99.90
46336;DHT22;31365;48.858;8.530;2023-04-29T00:31:09;14.30;99.90
46336;DHT22;31365;48.858;8.530;2023-04-29T00:33:37;14.30;99.90
46336;DHT22;31365;48.858;8.530;2023-04-29T00:36:07;14.20;99.90
46336;DHT22;31365;48.858;8.530;2023-04-29T00:38:35;14.20;99.90
46336;DHT22;31365;48.858;8.530;2023-04-29T00:41:03;14.20;99.90
46336;DHT22;31365;48.858;8.530;2023-04-29T00:43:32;14.20;99.90
46336;DHT22;31365;48.858;8.530;2023-04-29T00:46:00;14.20;99.90
46336;DHT22;31365;48.858;8.530;2023-04-29T00:48:29;14.20;99.90
46336;DHT22;31365;48.858;8.530;2023-04-29T00:50:58;14.20;99.90
46336;DHT22;31365;48.858;8.530;2023-04-29T00:53:27;14.20;99.90
46336;DHT22;31365;48.858;8.530;2023-04-29T00:55:56;14.10;99.90
46336;DHT22;31365;48.858;8.530;2023-04-29T00:58:24;14.10;99.90
46336;DHT22;31365;48.858;8.530;2023-04-29T01:00:58;14.10;99.90
46336;DHT22;31365;48.858;8.530;2023-04-29T01:03:28;14.10;99.90
46336;DHT22;31365;48.858;8.530;2023-04-29T01:06:06;14.00;99.90
46336;DHT22;31365;48.858;8.530;2023-04-29T01:08:54;13.90;99.90
46336;DHT22;31365;48.858;8.530;2023-04-29T01:11:43;13.90;99.90
46336;DHT22;31365;48.858;8.530;2023-04-29T01:14:21;13.90;99.90
46336;DHT22;31365;48.858;8.530;2023-04-29T01:16:51;13.80;99.90
46336;DHT22;31365;48.858;8.530;2023-04-29T01:19:43;13.80;99.90
46336;DHT22;31365;48.858;8.530;2023-04-29T01:22:15;13.70;99.90
46336;DHT22;31365;48.858;8.530;2023-04-29T01:24:47;13.60;99.90
46336;DHT22;31365;48.858;8.530;2023-04-29T01:27:25;13.60;99.90
46336;DHT22;31365;48.858;8.530;2023-04-29T01:30:11;13.60;99.90
46336;DHT22;31365;48.858;8.530;2023-04-29T01:32:53;13.60;99.90
46336;DHT22;31365;48.858;8.530;2023-04-29T01:35:43;13.50;99.90
46336;DHT22;31365;48.858;8.530;2023-04-29T01:38:25;13.50;99.90
46336;DHT22;31365;48.858;8.530;2023-04-29T01:41:09;13.50;99.90
46336;DHT22;31365;48.858;8.530;2023-04-29T01:43:47;13.50;99.90
46336;DHT22;31365;48.858;8.530;2023-04-29T01:46:21;13.50;99.90
46336;DHT22;31365;48.858;8.530;2023-04-29T01:48:53;13.60;99.90
46336;DHT22;31365;48.858;8.530;2023-04-29T01:51:22;13.50;99.90
46336;DHT22;31365;48.858;8.530;2023-04-29T01:53:50;13.50;99.90
46336;DHT22;31365;48.858;8.530;2023-04-29T01:56:19;13.50;99.90
46336;DHT22;31365;48.858;8.530;2023-04-29T01:59:01;13.50;99.90
46336;DHT22;31365;48.858;8.530;2023-04-29T02:01:39;13.50;99.90
46336;DHT22;31365;48.858;8.530;2023-04-29T02:04:08;13.50;99.90
46336;DHT22;31365;48.858;8.530;2023-04-29T02:06:36;13.50;99.90
46336;DHT22;31365;48.858;8.530;2023-04-29T02:09:04;13.50;99.90
46336;DHT22;31365;48.858;8.530;2023-04-29T02:11:35;13.50;99.90
46336;DHT22;31365;48.858;8.530;2023-04-29T02:14:03;13.50;99.90
46336;DHT22;31365;48.858;8.530;2023-04-29T02:16:31;13.50;99.90
46336;DHT22;31365;48.858;8.530;2023-04-29T02:19:03;13.50;99.90
46336;DHT22;31365;48.858;8.530;2023-04-29T02:21:31;13.50;99.90
46336;DHT22;31365;48.858;8.530;2023-04-29T02:24:01;13.60;99.90
46336;DHT22;31365;48.858;8.530;2023-04-29T02:26:29;13.60;99.90
46336;DHT22;31365;48.858;8.530;2023-04-29T02:28:59;13.50;99.90
46336;DHT22;31365;48.858;8.530;2023-04-29T02:31:29;13.50;99.90
46336;DHT22;31365;48.858;8.530;2023-04-29T02:33:57;13.50;99.90
46336;DHT22;31365;48.858;8.530;2023-04-29T02:36:26;13.50;99.90
46336;DHT22;31365;48.858;8.530;2023-04-29T02:38:55;13.50;99.90
46336;DHT22;31365;48.858;8.530;2023-04-29T02:41:23;13.40;99.90
46336;DHT22;31365;48.858;8.530;2023-04-29T02:43:52;13.40;99.90
46336;DHT22;31365;48.858;8.530;2023-04-29T02:46:21;13.40;99.90
46336;DHT22;31365;48.858;8.530;2023-04-29T02:48:50;13.30;99.90
46336;DHT22;31365;48.858;8.530;2023-04-29T02:51:18;13.30;99.90
46336;DHT22;31365;48.858;8.530;2023-04-29T02:53:47;13.30;99.90
46336;DHT22;31365;48.858;8.530;2023-04-29T02:56:16;13.20;99.90
46336;DHT22;31365;48.858;8.530;2023-04-29T02:58:44;13.20;99.90
46336;DHT22;31365;48.858;8.530;2023-04-29T03:01:13;13.20;99.90
46336;DHT22;31365;48.858;8.530;2023-04-29T03:03:42;13.20;99.90
46336;DHT22;31365;48.858;8.530;2023-04-29T03:06:12;13.20;99.90
46336;DHT22;31365;48.858;8.530;2023-04-29T03:08:40;13.20;99.90
46336;DHT22;31365;48.858;8.530;2023-04-29T03:11:09;13.10;99.90
46336;DHT22;31365;48.858;8.530;2023-04-29T03:13:37;13.10;99.90
46336;DHT22;31365;48.858;8.530;2023-04-29T03:16:07;13.10;99.90
46336;DHT22;31365;48.858;8.530;2023-04-29T03:18:36;13.00;99.90
46336;DHT22;31365;48.858;8.530;2023-04-29T03:21:05;13.00;99.90
46336;DHT22;31365;48.858;8.530;2023-04-29T03:23:34;12.90;99.90
46336;DHT22;31365;48.858;8.530;2023-04-29T03:26:03;12.90;99.90
46336;DHT22;31365;48.858;8.530;2023-04-29T03:28:32;12.80;99.90
46336;DHT22;31365;48.858;8.530;2023-04-29T03:31:00;12.80;99.90
46336;DHT22;31365;48.858;8.530;2023-04-29T03:33:28;12.70;99.90
46336;DHT22;31365;48.858;8.530;2023-04-29T03:35:57;12.60;99.90
46336;DHT22;31365;48.858;8.530;2023-04-29T03:38:45;12.50;99.90
46336;DHT22;31365;48.858;8.530;2023-04-29T03:41:14;12.60;99.90
46336;DHT22;31365;48.858;8.530;2023-04-29T03:43:43;12.60;99.90
46336;DHT22;31365;48.858;8.530;2023-04-29T04:34:47;12.40;99.90
46336;DHT22;31365;48.858;8.530;2023-04-29T04:37:16;12.50;99.90
46336;DHT22;31365;48.858;8.530;2023-04-29T04:39:50;12.50;99.90
46336;DHT22;31365;48.858;8.530;2023-04-29T04:42:19;12.50;99.90
46336;DHT22;31365;48.858;8.530;2023-04-29T04:44:49;12.50;99.90
46336;DHT22;31365;48.858;8.530;2023-04-29T04:47:30;12.50;99.90
46336;DHT22;31365;48.858;8.530;2023-04-29T04:50:06;12.60;99.90
46336;DHT22;31365;48.858;8.530;2023-04-29T04:52:36;12.50;99.90
46336;DHT22;31365;48.858;8.530;2023-04-29T04:55:26;12.50;99.90
46336;DHT22;31365;48.858;8.530;2023-04-29T04:57:55;12.40;99.90
46336;DHT22;31365;48.858;8.530;2023-04-29T05:00:24;12.30;99.90
46336;DHT22;31365;48.858;8.530;2023-04-29T05:02:53;12.20;99.90
46336;DHT22;31365;48.858;8.530;2023-04-29T05:05:22;12.20;99.90
46336;DHT22;31365;48.858;8.530;2023-04-29T05:07:50;12.20;99.90
46336;DHT22;31365;48.858;8.530;2023-04-29T05:10:25;12.20;99.90
46336;DHT22;31365;48.858;8.530;2023-04-29T05:12:58;12.20;99.90
46336;DHT22;31365;48.858;8.530;2023-04-29T05:15:27;12.30;99.90
46336;DHT22;31365;48.858;8.530;2023-04-29T05:17:58;12.30;99.90
46336;DHT22;31365;48.858;8.530;2023-04-29T05:20:28;12.40;99.90
46336;DHT22;31365;48.858;8.530;2023-04-29T05:22:58;12.50;99.90
46336;DHT22;31365;48.858;8.530;2023-04-29T05:25:27;12.50;99.90
46336;DHT22;31365;48.858;8.530;2023-04-29T05:27:56;12.60;99.90
46336;DHT22;31365;48.858;8.530;2023-04-29T05:30:28;12.60;99.90
46336;DHT22;31365;48.858;8.530;2023-04-29T05:32:56;12.60;99.90
46336;DHT22;31365;48.858;8.530;2023-04-29T05:35:25;12.60;99.90
46336;DHT22;31365;48.858;8.530;2023-04-29T05:37:55;12.60;99.90
46336;DHT22;31365;48.858;8.530;2023-04-29T05:40:35;12.60;99.90
46336;DHT22;31365;48.858;8.530;2023-04-29T05:43:27;12.60;99.90
46336;DHT22;31365;48.858;8.530;2023-04-29T05:45:56;12.60;99.90
46336;DHT22;31365;48.858;8.530;2023-04-29T05:48:25;12.70;99.90
46336;DHT22;31365;48.858;8.530;2023-04-29T05:50:55;12.80;99.90
46336;DHT22;31365;48.858;8.530;2023-04-29T05:53:25;12.90;99.90
46336;DHT22;31365;48.858;8.530;2023-04-29T05:55:53;12.90;99.90
46336;DHT22;31365;48.858;8.530;2023-04-29T05:58:21;13.00;99.90
46336;DHT22;31365;48.858;8.530;2023-04-29T06:00:49;13.00;99.90
46336;DHT22;31365;48.858;8.530;2023-04-29T06:03:21;13.00;99.90
46336;DHT22;31365;48.858;8.530;2023-04-29T06:06:06;13.00;99.90
46336;DHT22;31365;48.858;8.530;2023-04-29T06:08:41;13.10;99.90
46336;DHT22;31365;48.858;8.530;2023-04-29T06:11:14;13.20;99.90
46336;DHT22;31365;48.858;8.530;2023-04-29T06:13:43;13.40;99.90
46336;DHT22;31365;48.858;8.530;2023-04-29T06:16:11;13.40;99.90
46336;DHT22;31365;48.858;8.530;2023-04-29T06:18:39;13.30;99.90
46336;DHT22;31365;48.858;8.530;2023-04-29T06:21:08;13.30;99.90
46336;DHT22;31365;48.858;8.530;2023-04-29T06:23:36;13.20;99.90
46336;DHT22;31365;48.858;8.530;2023-04-29T06:26:11;13.20;99.90
46336;DHT22;31365;48.858;8.530;2023-04-29T06:28:40;13.20;99.90
46336;DHT22;31365;48.858;8.530;2023-04-29T06:31:08;13.10;99.90
46336;DHT22;31365;48.858;8.530;2023-04-29T06:33:36;13.10;99.90
46336;DHT22;31365;48.858;8.530;2023-04-29T06:36:05;13.10;99.90
46336;DHT22;31365;48.858;8.530;2023-04-29T06:38:53;13.20;99.90
46336;DHT22;31365;48.858;8.530;2023-04-29T06:41:34;13.20;99.90
46336;DHT22;31365;48.858;8.530;2023-04-29T06:44:21;13.10;99.90
46336;DHT22;31365;48.858;8.530;2023-04-29T06:47:07;13.00;99.90
46336;DHT22;31365;48.858;8.530;2023-04-29T06:49:47;13.00;99.90
46336;DHT22;31365;48.858;8.530;2023-04-29T06:52:15;13.00;99.90
46336;DHT22;31365;48.858;8.530;2023-04-29T06:54:43;13.00;99.90
46336;DHT22;31365;48.858;8.530;2023-04-29T06:57:12;13.00;99.90
46336;DHT22;31365;48.858;8.530;2023-04-29T06:59:40;13.00;99.90
46336;DHT22;31365;48.858;8.530;2023-04-29T07:02:08;13.20;99.90
46336;DHT22;31365;48.858;8.530;2023-04-29T07:04:38;13.30;99.90
46336;DHT22;31365;48.858;8.530;2023-04-29T07:07:06;13.50;99.90
46336;DHT22;31365;48.858;8.530;2023-04-29T07:09:35;13.60;99.90
46336;DHT22;31365;48.858;8.530;2023-04-29T07:12:04;13.70;99.90
46336;DHT22;31365;48.858;8.530;2023-04-29T07:14:33;13.80;99.90
46336;DHT22;31365;48.858;8.530;2023-04-29T07:17:03;14.00;99.90
46336;DHT22;31365;48.858;8.530;2023-04-29T07:19:31;14.10;99.90
46336;DHT22;31365;48.858;8.530;2023-04-29T07:21:59;14.20;99.90
46336;DHT22;31365;48.858;8.530;2023-04-29T07:24:28;14.10;99.90
46336;DHT22;31365;48.858;8.530;2023-04-29T07:26:56;14.10;99.90
46336;DHT22;31365;48.858;8.530;2023-04-29T07:29:25;14.10;99.90
46336;DHT22;31365;48.858;8.530;2023-04-29T07:31:55;14.10;99.90
46336;DHT22;31365;48.858;8.530;2023-04-29T07:34:23;14.20;99.90
46336;DHT22;31365;48.858;8.530;2023-04-29T07:36:52;14.20;99.90
46336;DHT22;31365;48.858;8.530;2023-04-29T07:39:20;14.20;99.90
46336;DHT22;31365;48.858;8.530;2023-04-29T07:41:54;14.20;99.90
46336;DHT22;31365;48.858;8.530;2023-04-29T07:44:22;14.20;99.90
46336;DHT22;31365;48.858;8.530;2023-04-29T07:46:50;14.40;99.90
46336;DHT22;31365;48.858;8.530;2023-04-29T07:49:19;14.50;99.90
46336;DHT22;31365;48.858;8.530;2023-04-29T07:51:48;14.50;99.90
46336;DHT22;31365;48.858;8.530;2023-04-29T07:54:16;14.60;99.90
46336;DHT22;31365;48.858;8.530;2023-04-29T07:56:45;14.70;99.90
46336;DHT22;31365;48.858;8.530;2023-04-29T07:59:13;14.60;99.90
46336;DHT22;31365;48.858;8.530;2023-04-29T08:01:41;14.50;99.90
46336;DHT22;31365;48.858;8.530;2023-04-29T08:04:10;14.40;99.90
46336;DHT22;31365;48.858;8.530;2023-04-29T08:06:49;14.40;99.90
46336;DHT22;31365;48.858;8.530;2023-04-29T08:09:17;14.40;99.90
46336;DHT22;31365;48.858;8.530;2023-04-29T08:11:46;14.30;99.90
46336;DHT22;31365;48.858;8.530;2023-04-29T08:14:14;14.20;99.90
46336;DHT22;31365;48.858;8.530;2023-04-29T08:16:42;14.50;99.90
46336;DHT22;31365;48.858;8.530;2023-04-29T08:19:11;14.60;99.90
46336;DHT22;31365;48.858;8.530;2023-04-29T08:21:39;14.80;99.90
46336;DHT22;31365;48.858;8.530;2023-04-29T08:24:09;14.70;99.90
46336;DHT22;31365;48.858;8.530;2023-04-29T08:26:38;14.80;99.90
46336;DHT22;31365;48.858;8.530;2023-04-29T08:29:08;14.80;99.90
46336;DHT22;31365;48.858;8.530;2023-04-29T08:31:36;14.80;99.90
46336;DHT22;31365;48.858;8.530;2023-04-29T08:34:04;15.00;99.90
46336;DHT22;31365;48.858;8.530;2023-04-29T08:36:33;15.00;99.90
46336;DHT22;31365;48.858;8.530;2023-04-29T08:39:02;15.10;99.90
46336;DHT22;31365;48.858;8.530;2023-04-29T08:41:32;15.10;99.90
46336;DHT22;31365;48.858;8.530;2023-04-29T08:44:00;15.00;99.90
46336;DHT22;31365;48.858;8.530;2023-04-29T08:46:29;14.90;99.90
46336;DHT22;31365;48.858;8.530;2023-04-29T08:49:00;14.80;99.90
46336;DHT22;31365;48.858;8.530;2023-04-29T08:51:30;14.70;99.90
46336;DHT22;31365;48.858;8.530;2023-04-29T08:54:00;14.50;99.90
46336;DHT22;31365;48.858;8.530;2023-04-29T08:56:30;14.50;99.90
46336;DHT22;31365;48.858;8.530;2023-04-29T08:59:01;14.50;99.90
46336;DHT22;31365;48.858;8.530;2023-04-29T09:01:35;14.60;99.90
46336;DHT22;31365;48.858;8.530;2023-04-29T09:04:11;14.50;99.90
46336;DHT22;31365;48.858;8.530;2023-04-29T09:06:48;14.40;99.90
46336;DHT22;31365;48.858;8.530;2023-04-29T09:09:18;14.40;99.90
46336;DHT22;31365;48.858;8.530;2023-04-29T09:11:48;14.40;99.90
46336;DHT22;31365;48.858;8.530;2023-04-29T09:14:18;14.40;99.90
46336;DHT22;31365;48.858;8.530;2023-04-29T09:16:47;14.40;99.90
46336;DHT22;31365;48.858;8.530;2023-04-29T09:19:29;14.40;99.90
46336;DHT22;31365;48.858;8.530;2023-04-29T09:21:58;14.30;99.90
46336;DHT22;31365;48.858;8.530;2023-04-29T09:24:28;14.40;99.90
46336;DHT22;31365;48.858;8.530;2023-04-29T09:26:59;14.40;99.90
46336;DHT22;31365;48.858;8.530;2023-04-29T09:29:29;14.40;99.90
46336;DHT22;31365;48.858;8.530;2023-04-29T09:31:59;14.50;99.90
46336;DHT22;31365;48.858;8.530;2023-04-29T09:34:31;14.50;99.90
46336;DHT22;31365;48.858;8.530;2023-04-29T09:37:01;14.60;99.90
46336;DHT22;31365;48.858;8.530;2023-04-29T09:39:38;14.70;99.90
46336;DHT22;31365;48.858;8.530;2023-04-29T09:42:08;14.80;99.90
46336;DHT22;31365;48.858;8.530;2023-04-29T09:44:40;14.90;99.90
46336;DHT22;31365;48.858;8.530;2023-04-29T09:47:10;14.80;99.90
46336;DHT22;31365;48.858;8.530;2023-04-29T09:49:40;14.80;99.90
46336;DHT22;31365;48.858;8.530;2023-04-29T09:52:12;14.70;99.90
46336;DHT22;31365;48.858;8.530;2023-04-29T09:54:43;14.70;99.90
46336;DHT22;31365;48.858;8.530;2023-04-29T09:57:13;14.60;99.90
46336;DHT22;31365;48.858;8.530;2023-04-29T09:59:42;14.60;99.90
46336;DHT22;31365;48.858;8.530;2023-04-29T10:02:13;14.60;99.90
46336;DHT22;31365;48.858;8.530;2023-04-29T10:04:45;14.60;99.90
46336;DHT22;31365;48.858;8.530;2023-04-29T10:07:16;14.60;99.90
46336;DHT22;31365;48.858;8.530;2023-04-29T10:09:46;14.70;99.90
46336;DHT22;31365;48.858;8.530;2023-04-29T10:12:17;14.70;99.90
46336;DHT22;31365;48.858;8.530;2023-04-29T10:14:54;14.80;99.90
46336;DHT22;31365;48.858;8.530;2023-04-29T10:17:36;14.80;99.90
46336;DHT22;31365;48.858;8.530;2023-04-29T10:20:13;14.80;99.90
46336;DHT22;31365;48.858;8.530;2023-04-29T10:22:47;14.80;99.90
46336;DHT22;31365;48.858;8.530;2023-04-29T10:25:17;14.90;99.90
46336;DHT22;31365;48.858;8.530;2023-04-29T10:27:48;14.90;99.90
46336;DHT22;31365;48.858;8.530;2023-04-29T10:30:19;15.10;99.90
46336;DHT22;31365;48.858;8.530;2023-04-29T10:32:50;15.20;99.90
46336;DHT22;31365;48.858;8.530;2023-04-29T10:35:20;15.30;99.90
46336;DHT22;31365;48.858;8.530;2023-04-29T10:37:52;15.40;99.90
46336;DHT22;31365;48.858;8.530;2023-04-29T10:40:26;15.60;99.90
46336;DHT22;31365;48.858;8.530;2023-04-29T10:43:03;15.70;99.90
46336;DHT22;31365;48.858;8.530;2023-04-29T10:45:32;15.80;99.90
46336;DHT22;31365;48.858;8.530;2023-04-29T10:48:10;16.10;99.90
46336;DHT22;31365;48.858;8.530;2023-04-29T10:50:59;16.10;99.90
46336;DHT22;31365;48.858;8.530;2023-04-29T10:53:29;16.30;99.90
46336;DHT22;31365;48.858;8.530;2023-04-29T10:56:02;16.40;99.90
46336;DHT22;31365;48.858;8.530;2023-04-29T10:58:42;16.70;99.90
46336;DHT22;31365;48.858;8.530;2023-04-29T11:01:12;17.10;99.90
46336;DHT22;31365;48.858;8.530;2023-04-29T11:03:50;17.40;99.90
46336;DHT22;31365;48.858;8.530;2023-04-29T11:06:25;17.60;99.90
46336;DHT22;31365;48.858;8.530;2023-04-29T11:09:27;17.70;99.90
46336;DHT22;31365;48.858;8.530;2023-04-29T11:11:59;17.60;99.90
46336;DHT22;31365;48.858;8.530;2023-04-29T11:14:33;17.80;99.90
46336;DHT22;31365;48.858;8.530;2023-04-29T11:17:08;18.00;99.90
46336;DHT22;31365;48.858;8.530;2023-04-29T11:19:40;18.10;99.90
46336;DHT22;31365;48.858;8.530;2023-04-29T11:22:24;18.10;99.90
46336;DHT22;31365;48.858;8.530;2023-04-29T11:24:55;18.00;99.90
46336;DHT22;31365;48.858;8.530;2023-04-29T11:27:28;18.00;99.90
46336;DHT22;31365;48.858;8.530;2023-04-29T11:30:00;18.10;99.90
46336;DHT22;31365;48.858;8.530;2023-04-29T11:32:32;18.10;99.90
46336;DHT22;31365;48.858;8.530;2023-04-29T11:35:08;18.10;99.90
46336;DHT22;31365;48.858;8.530;2023-04-29T11:37:39;18.20;99.90
46336;DHT22;31365;48.858;8.530;2023-04-29T11:40:09;18.60;99.90
46336;DHT22;31365;48.858;8.530;2023-04-29T11:42:40;18.80;99.90
46336;DHT22;31365;48.858;8.530;2023-04-29T11:45:11;18.70;99.90
46336;DHT22;31365;48.858;8.530;2023-04-29T11:47:42;18.50;99.90
46336;DHT22;31365;48.858;8.530;2023-04-29T11:50:14;18.20;99.90
46336;DHT22;31365;48.858;8.530;2023-04-29T11:52:46;17.90;99.90
46336;DHT22;31365;48.858;8.530;2023-04-29T11:55:15;17.60;99.90
46336;DHT22;31365;48.858;8.530;2023-04-29T11:57:48;17.10;99.90
46336;DHT22;31365;48.858;8.530;2023-04-29T12:00:19;16.80;99.90
46336;DHT22;31365;48.858;8.530;2023-04-29T12:02:48;16.40;99.90
46336;DHT22;31365;48.858;8.530;2023-04-29T12:05:16;16.20;99.90
46336;DHT22;31365;48.858;8.530;2023-04-29T12:07:45;16.00;99.90
46336;DHT22;31365;48.858;8.530;2023-04-29T12:10:16;15.80;99.90
46336;DHT22;31365;48.858;8.530;2023-04-29T12:12:44;15.60;99.90
46336;DHT22;31365;48.858;8.530;2023-04-29T12:15:13;15.40;99.90
46336;DHT22;31365;48.858;8.530;2023-04-29T12:17:43;15.40;99.90
46336;DHT22;31365;48.858;8.530;2023-04-29T12:20:12;15.50;99.90
46336;DHT22;31365;48.858;8.530;2023-04-29T12:22:41;15.60;99.90
46336;DHT22;31365;48.858;8.530;2023-04-29T12:25:11;15.70;99.90
46336;DHT22;31365;48.858;8.530;2023-04-29T12:27:39;15.80;99.90
46336;DHT22;31365;48.858;8.530;2023-04-29T12:30:09;15.80;99.90
46336;DHT22;31365;48.858;8.530;2023-04-29T12:32:37;15.70;99.90
46336;DHT22;31365;48.858;8.530;2023-04-29T12:35:13;15.60;99.90
46336;DHT22;31365;48.858;8.530;2023-04-29T12:37:46;15.60;99.90
46336;DHT22;31365;48.858;8.530;2023-04-29T12:40:15;15.60;99.90
46336;DHT22;31365;48.858;8.530;2023-04-29T12:42:43;15.50;99.90
46336;DHT22;31365;48.858;8.530;2023-04-29T12:45:25;15.50;99.90
46336;DHT22;31365;48.858;8.530;2023-04-29T12:47:55;15.40;99.90
46336;DHT22;31365;48.858;8.530;2023-04-29T12:50:32;15.30;99.90
46336;DHT22;31365;48.858;8.530;2023-04-29T12:53:02;15.30;99.90
46336;DHT22;31365;48.858;8.530;2023-04-29T12:55:32;15.20;99.90
46336;DHT22;31365;48.858;8.530;2023-04-29T12:58:02;15.20;99.90
46336;DHT22;31365;48.858;8.530;2023-04-29T13:00:30;15.20;99.90
46336;DHT22;31365;48.858;8.530;2023-04-29T13:03:00;15.20;99.90
46336;DHT22;31365;48.858;8.530;2023-04-29T13:05:31;15.20;99.90
46336;DHT22;31365;48.858;8.530;2023-04-29T13:07:59;15.20;99.90
46336;DHT22;31365;48.858;8.530;2023-04-29T13:10:27;15.30;99.90
46336;DHT22;31365;48.858;8.530;2023-04-29T13:12:56;15.20;99.90
46336;DHT22;31365;48.858;8.530;2023-04-29T13:15:25;15.20;99.90
46336;DHT22;31365;48.858;8.530;2023-04-29T13:17:54;15.30;99.90
46336;DHT22;31365;48.858;8.530;2023-04-29T13:20:24;15.40;99.90
46336;DHT22;31365;48.858;8.530;2023-04-29T13:22:53;15.50;99.90
46336;DHT22;31365;48.858;8.530;2023-04-29T13:25:21;15.50;99.90
46336;DHT22;31365;48.858;8.530;2023-04-29T13:27:49;15.50;99.90
46336;DHT22;31365;48.858;8.530;2023-04-29T13:30:18;15.50;99.90
46336;DHT22;31365;48.858;8.530;2023-04-29T13:32:46;15.50;99.90
46336;DHT22;31365;48.858;8.530;2023-04-29T13:35:24;15.50;99.90
46336;DHT22;31365;48.858;8.530;2023-04-29T13:37:54;15.50;99.90
46336;DHT22;31365;48.858;8.530;2023-04-29T13:40:22;15.60;99.90
46336;DHT22;31365;48.858;8.530;2023-04-29T13:42:54;15.60;99.90
46336;DHT22;31365;48.858;8.530;2023-04-29T13:45:32;15.60;99.90
46336;DHT22;31365;48.858;8.530;2023-04-29T13:48:05;15.50;99.90
46336;DHT22;31365;48.858;8.530;2023-04-29T13:50:54;15.50;99.90
46336;DHT22;31365;48.858;8.530;2023-04-29T13:53:44;15.50;99.90
46336;DHT22;31365;48.858;8.530;2023-04-29T13:56:15;15.30;99.90
46336;DHT22;31365;48.858;8.530;2023-04-29T13:58:47;15.30;99.90
46336;DHT22;31365;48.858;8.530;2023-04-29T14:01:18;15.30;99.90
46336;DHT22;31365;48.858;8.530;2023-04-29T14:03:51;15.30;99.90
46336;DHT22;31365;48.858;8.530;2023-04-29T14:06:19;15.30;99.90
46336;DHT22;31365;48.858;8.530;2023-04-29T14:08:49;15.30;99.90
46336;DHT22;31365;48.858;8.530;2023-04-29T14:11:17;15.30;99.90
46336;DHT22;31365;48.858;8.530;2023-04-29T14:13:45;15.30;99.90
46336;DHT22;31365;48.858;8.530;2023-04-29T14:16:13;15.30;99.90
46336;DHT22;31365;48.858;8.530;2023-04-29T14:18:42;15.30;99.90
46336;DHT22;31365;48.858;8.530;2023-04-29T14:21:11;15.20;99.90
46336;DHT22;31365;48.858;8.530;2023-04-29T14:23:39;15.30;99.90
46336;DHT22;31365;48.858;8.530;2023-04-29T14:26:09;15.30;99.90
46336;DHT22;31365;48.858;8.530;2023-04-29T14:28:53;15.40;99.90
46336;DHT22;31365;48.858;8.530;2023-04-29T14:31:24;15.40;99.90
46336;DHT22;31365;48.858;8.530;2023-04-29T14:33:54;15.50;99.90
46336;DHT22;31365;48.858;8.530;2023-04-29T14:36:23;15.50;99.90
46336;DHT22;31365;48.858;8.530;2023-04-29T14:38:52;15.60;99.90
46336;DHT22;31365;48.858;8.530;2023-04-29T14:41:22;15.60;99.90
46336;DHT22;31365;48.858;8.530;2023-04-29T14:43:51;15.60;99.90
46336;DHT22;31365;48.858;8.530;2023-04-29T14:46:19;15.60;99.90
46336;DHT22;31365;48.858;8.530;2023-04-29T14:48:48;15.70;99.90
46336;DHT22;31365;48.858;8.530;2023-04-29T14:51:16;15.60;99.90
46336;DHT22;31365;48.858;8.530;2023-04-29T14:53:44;15.50;99.90
46336;DHT22;31365;48.858;8.530;2023-04-29T14:56:12;15.50;99.90
46336;DHT22;31365;48.858;8.530;2023-04-29T14:58:43;15.30;99.90
46336;DHT22;31365;48.858;8.530;2023-04-29T15:01:11;15.30;99.90
46336;DHT22;31365;48.858;8.530;2023-04-29T15:03:40;15.20;99.90
46336;DHT22;31365;48.858;8.530;2023-04-29T15:06:11;15.10;99.90
46336;DHT22;31365;48.858;8.530;2023-04-29T15:08:39;15.10;99.90
46336;DHT22;31365;48.858;8.530;2023-04-29T15:11:07;15.00;99.90
46336;DHT22;31365;48.858;8.530;2023-04-29T15:13:36;14.90;99.90
46336;DHT22;31365;48.858;8.530;2023-04-29T15:16:06;14.90;99.90
46336;DHT22;31365;48.858;8.530;2023-04-29T15:18:35;14.90;99.90
46336;DHT22;31365;48.858;8.530;2023-04-29T15:21:05;14.90;99.90
46336;DHT22;31365;48.858;8.530;2023-04-29T15:23:33;14.90;99.90
46336;DHT22;31365;48.858;8.530;2023-04-29T15:26:02;14.90;99.90
46336;DHT22;31365;48.858;8.530;2023-04-29T15:28:30;14.80;99.90
46336;DHT22;31365;48.858;8.530;2023-04-29T15:30:59;14.70;99.90
46336;DHT22;31365;48.858;8.530;2023-04-29T15:33:32;14.60;99.90
46336;DHT22;31365;48.858;8.530;2023-04-29T15:36:00;14.60;99.90
46336;DHT22;31365;48.858;8.530;2023-04-29T15:38:30;14.50;99.90
46336;DHT22;31365;48.858;8.530;2023-04-29T15:40:58;14.50;99.90
46336;DHT22;31365;48.858;8.530;2023-04-29T15:43:28;14.40;99.90
46336;DHT22;31365;48.858;8.530;2023-04-29T15:45:58;14.40;99.90
46336;DHT22;31365;48.858;8.530;2023-04-29T15:48:27;14.30;99.90
46336;DHT22;31365;48.858;8.530;2023-04-29T15:50:56;14.30;99.90
46336;DHT22;31365;48.858;8.530;2023-04-29T15:53:25;14.30;99.90
46336;DHT22;31365;48.858;8.530;2023-04-29T15:55:53;14.30;99.90
46336;DHT22;31365;48.858;8.530;2023-04-29T15:58:21;14.30;99.90
46336;DHT22;31365;48.858;8.530;2023-04-29T16:00:50;14.30;99.90
46336;DHT22;31365;48.858;8.530;2023-04-29T16:03:18;14.20;99.90
46336;DHT22;31365;48.858;8.530;2023-04-29T16:05:48;14.20;99.90
46336;DHT22;31365;48.858;8.530;2023-04-29T16:08:17;14.20;99.90
46336;DHT22;31365;48.858;8.530;2023-04-29T16:10:45;14.20;99.90
46336;DHT22;31365;48.858;8.530;2023-04-29T16:13:15;14.20;99.90
46336;DHT22;31365;48.858;8.530;2023-04-29T16:15:43;14.10;99.90
46336;DHT22;31365;48.858;8.530;2023-04-29T16:18:12;14.10;99.90
46336;DHT22;31365;48.858;8.530;2023-04-29T16:20:40;14.10;99.90
46336;DHT22;31365;48.858;8.530;2023-04-29T16:23:11;14.20;99.90
46336;DHT22;31365;48.858;8.530;2023-04-29T16:25:41;14.10;99.90
46336;DHT22;31365;48.858;8.530;2023-04-29T16:28:09;14.10;99.90
46336;DHT22;31365;48.858;8.530;2023-04-29T16:30:37;13.90;99.90
46336;DHT22;31365;48.858;8.530;2023-04-29T16:33:05;13.90;99.90
46336;DHT22;31365;48.858;8.530;2023-04-29T16:35:35;13.80;99.90
46336;DHT22;31365;48.858;8.530;2023-04-29T16:38:03;13.70;99.90
46336;DHT22;31365;48.858;8.530;2023-04-29T16:40:31;13.70;99.90
46336;DHT22;31365;48.858;8.530;2023-04-29T16:43:01;13.60;99.90
46336;DHT22;31365;48.858;8.530;2023-04-29T16:45:29;13.70;99.90
46336;DHT22;31365;48.858;8.530;2023-04-29T16:47:57;13.70;99.90